sensor_id;sensor_type;location;lat;lon;timestamp;temperature;humidity
19085;DHT22;9675;51.538;6.728;2024-02-23T00:01:05;9.20;99.90
19085;DHT22;9675;51.538;6.728;2024-02-23T00:03:33;9.20;99.90
19085;DHT22;9675;51.538;6.728;2024-02-23T00:06:02;9.10;99.90
19085;DHT22;9675;51.538;6.728;2024-02-23T00:08:29;9.10;99.90
19085;DHT22;9675;51.538;6.728;2024-02-23T00:10:56;9.10;99.90
19085;DHT22;9675;51.538;6.728;2024-02-23T00:13:23;9.10;99.90
19085;DHT22;9675;51.538;6.728;2024-02-23T00:15:50;9.00;99.90
19085;DHT22;9675;51.538;6.728;2024-02-23T00:18:17;9.00;99.90
19085;DHT22;9675;51.538;6.728;2024-02-23T00:20:47;9.00;99.90
19085;DHT22;9675;51.538;6.728;2024-02-23T00:23:14;8.90;99.90
19085;DHT22;9675;51.538;6.728;2024-02-23T00:25:41;8.90;99.90
19085;DHT22;9675;51.538;6.728;2024-02-23T00:28:08;8.90;99.90
19085;DHT22;9675;51.538;6.728;2024-02-23T00:30:35;8.80;99.90
19085;DHT22;9675;51.538;6.728;2024-02-23T00:33:03;8.80;99.90
19085;DHT22;9675;51.538;6.728;2024-02-23T00:35:30;8.70;99.90
19085;DHT22;9675;51.538;6.728;2024-02-23T00:37:59;8.70;99.90
19085;DHT22;9675;51.538;6.728;2024-02-23T00:40:26;8.70;99.90
19085;DHT22;9675;51.538;6.728;2024-02-23T00:42:53;8.70;99.90
19085;DHT22;9675;51.538;6.728;2024-02-23T00:45:20;8.60;99.90
19085;DHT22;9675;51.538;6.728;2024-02-23T00:47:48;8.70;99.90
19085;DHT22;9675;51.538;6.728;2024-02-23T00:50:15;8.60;99.90
19085;DHT22;9675;51.538;6.728;2024-02-23T00:52:42;8.60;99.90
19085;DHT22;9675;51.538;6.728;2024-02-23T00:55:10;8.60;99.90
19085;DHT22;9675;51.538;6.728;2024-02-23T00:57:38;8.60;99.90
19085;DHT22;9675;51.538;6.728;2024-02-23T01:00:06;8.60;99.90
19085;DHT22;9675;51.538;6.728;2024-02-23T01:02:35;8.50;99.90
19085;DHT22;9675;51.538;6.728;2024-02-23T01:05:04;8.40;99.90
19085;DHT22;9675;51.538;6.728;2024-02-23T01:07:34;8.40;99.90
19085;DHT22;9675;51.538;6.728;2024-02-23T01:10:01;8.40;99.90
19085;DHT22;9675;51.538;6.728;2024-02-23T01:12:30;8.40;99.90
19085;DHT22;9675;51.538;6.728;2024-02-23T01:14:57;8.40;99.90
19085;DHT22;9675;51.538;6.728;2024-02-23T01:17:24;8.30;99.90
19085;DHT22;9675;51.538;6.728;2024-02-23T01:19:52;8.30;99.90
19085;DHT22;9675;51.538;6.728;2024-02-23T01:22:19;8.30;99.90
19085;DHT22;9675;51.538;6.728;2024-02-23T01:24:46;8.30;99.90
19085;DHT22;9675;51.538;6.728;2024-02-23T01:27:13;8.30;99.90
19085;DHT22;9675;51.538;6.728;2024-02-23T01:29:41;8.30;99.90
19085;DHT22;9675;51.538;6.728;2024-02-23T01:32:08;8.20;99.90
19085;DHT22;9675;51.538;6.728;2024-02-23T01:34:35;8.20;99.90
19085;DHT22;9675;51.538;6.728;2024-02-23T01:37:03;8.20;99.90
19085;DHT22;9675;51.538;6.728;2024-02-23T01:39:30;8.10;99.90
19085;DHT22;9675;51.538;6.728;2024-02-23T01:41:57;8.10;99.90
19085;DHT22;9675;51.538;6.728;2024-02-23T01:44:24;8.10;99.90
19085;DHT22;9675;51.538;6.728;2024-02-23T01:46:52;8.00;99.90
19085;DHT22;9675;51.538;6.728;2024-02-23T01:49:20;8.00;99.90
19085;DHT22;9675;51.538;6.728;2024-02-23T01:51:48;8.00;99.90
19085;DHT22;9675;51.538;6.728;2024-02-23T01:54:16;8.00;99.90
19085;DHT22;9675;51.538;6.728;2024-02-23T01:56:44;8.00;99.90
19085;DHT22;9675;51.538;6.728;2024-02-23T01:59:11;7.90;99.90
19085;DHT22;9675;51.538;6.728;2024-02-23T02:01:43;7.90;99.90
19085;DHT22;9675;51.538;6.728;2024-02-23T02:04:12;7.90;99.90
19085;DHT22;9675;51.538;6.728;2024-02-23T02:06:39;7.80;99.90
19085;DHT22;9675;51.538;6.728;2024-02-23T02:09:06;7.80;99.90
19085;DHT22;9675;51.538;6.728;2024-02-23T02:11:34;7.80;99.90
19085;DHT22;9675;51.538;6.728;2024-02-23T02:14:03;7.80;99.90
19085;DHT22;9675;51.538;6.728;2024-02-23T02:16:30;7.80;99.90
19085;DHT22;9675;51.538;6.728;2024-02-23T02:18:57;7.80;99.90
19085;DHT22;9675;51.538;6.728;2024-02-23T02:21:25;7.90;99.90
19085;DHT22;9675;51.538;6.728;2024-02-23T02:23:53;7.80;99.90
19085;DHT22;9675;51.538;6.728;2024-02-23T02:26:22;7.80;99.90
19085;DHT22;9675;51.538;6.728;2024-02-23T02:28:49;7.80;99.90
19085;DHT22;9675;51.538;6.728;2024-02-23T02:31:16;7.80;99.90
19085;DHT22;9675;51.538;6.728;2024-02-23T02:33:43;7.80;99.90
19085;DHT22;9675;51.538;6.728;2024-02-23T02:36:10;7.90;99.90
19085;DHT22;9675;51.538;6.728;2024-02-23T02:38:39;7.80;99.90
19085;DHT22;9675;51.538;6.728;2024-02-23T02:41:06;7.70;99.90
19085;DHT22;9675;51.538;6.728;2024-02-23T02:43:33;7.70;99.90
19085;DHT22;9675;51.538;6.728;2024-02-23T02:46:00;7.70;99.90
19085;DHT22;9675;51.538;6.728;2024-02-23T02:48:27;7.70;99.90
19085;DHT22;9675;51.538;6.728;2024-02-23T02:50:54;7.70;99.90
19085;DHT22;9675;51.538;6.728;2024-02-23T02:53:21;7.70;99.90
19085;DHT22;9675;51.538;6.728;2024-02-23T02:55:50;7.70;99.90
19085;DHT22;9675;51.538;6.728;2024-02-23T02:58:17;7.70;99.90
19085;DHT22;9675;51.538;6.728;2024-02-23T03:00:44;7.60;99.90
19085;DHT22;9675;51.538;6.728;2024-02-23T03:03:11;7.60;99.90
19085;DHT22;9675;51.538;6.728;2024-02-23T03:05:38;7.50;99.90
19085;DHT22;9675;51.538;6.728;2024-02-23T03:08:06;7.60;99.90
19085;DHT22;9675;51.538;6.728;2024-02-23T03:10:33;7.60;99.90
19085;DHT22;9675;51.538;6.728;2024-02-23T03:13:01;7.60;99.90
19085;DHT22;9675;51.538;6.728;2024-02-23T03:15:28;7.50;99.90
19085;DHT22;9675;51.538;6.728;2024-02-23T03:17:56;7.50;99.90
19085;DHT22;9675;51.538;6.728;2024-02-23T03:20:23;7.40;99.90
19085;DHT22;9675;51.538;6.728;2024-02-23T03:22:50;7.40;99.90
19085;DHT22;9675;51.538;6.728;2024-02-23T03:25:17;7.40;99.90
19085;DHT22;9675;51.538;6.728;2024-02-23T03:27:45;7.40;99.90
19085;DHT22;9675;51.538;6.728;2024-02-23T03:30:13;7.40;99.90
19085;DHT22;9675;51.538;6.728;2024-02-23T03:32:41;7.40;99.90
19085;DHT22;9675;51.538;6.728;2024-02-23T03:35:08;7.30;99.90
19085;DHT22;9675;51.538;6.728;2024-02-23T03:37:36;7.30;99.90
19085;DHT22;9675;51.538;6.728;2024-02-23T03:40:03;7.30;99.90
19085;DHT22;9675;51.538;6.728;2024-02-23T03:42:31;7.30;99.90
19085;DHT22;9675;51.538;6.728;2024-02-23T03:44:59;7.30;99.90
19085;DHT22;9675;51.538;6.728;2024-02-23T03:47:27;7.30;99.90
19085;DHT22;9675;51.538;6.728;2024-02-23T03:49:54;7.20;99.90
19085;DHT22;9675;51.538;6.728;2024-02-23T03:52:21;7.20;99.90
19085;DHT22;9675;51.538;6.728;2024-02-23T03:54:48;7.20;99.90
19085;DHT22;9675;51.538;6.728;2024-02-23T03:57:17;7.30;99.90
19085;DHT22;9675;51.538;6.728;2024-02-23T03:59:51;7.30;99.90
19085;DHT22;9675;51.538;6.728;2024-02-23T04:02:19;7.20;99.90
19085;DHT22;9675;51.538;6.728;2024-02-23T04:04:48;7.20;99.90
19085;DHT22;9675;51.538;6.728;2024-02-23T04:07:15;7.20;99.90
19085;DHT22;9675;51.538;6.728;2024-02-23T04:09:42;7.20;99.90
19085;DHT22;9675;51.538;6.728;2024-02-23T04:12:09;7.20;99.90
19085;DHT22;9675;51.538;6.728;2024-02-23T04:14:36;7.10;99.90
19085;DHT22;9675;51.538;6.728;2024-02-23T04:17:03;7.10;99.90
19085;DHT22;9675;51.538;6.728;2024-02-23T04:19:30;7.10;99.90
19085;DHT22;9675;51.538;6.728;2024-02-23T04:21:59;7.10;99.90
19085;DHT22;9675;51.538;6.728;2024-02-23T04:24:26;7.10;99.90
19085;DHT22;9675;51.538;6.728;2024-02-23T04:26:53;7.10;99.90
19085;DHT22;9675;51.538;6.728;2024-02-23T04:29:20;7.10;99.90
19085;DHT22;9675;51.538;6.728;2024-02-23T04:31:47;7.10;99.90
19085;DHT22;9675;51.538;6.728;2024-02-23T04:34:14;7.00;99.90
19085;DHT22;9675;51.538;6.728;2024-02-23T04:36:42;7.00;99.90
19085;DHT22;9675;51.538;6.728;2024-02-23T04:39:11;7.00;99.90
19085;DHT22;9675;51.538;6.728;2024-02-23T04:41:38;7.00;99.90
19085;DHT22;9675;51.538;6.728;2024-02-23T04:44:05;7.00;99.90
19085;DHT22;9675;51.538;6.728;2024-02-23T04:46:32;7.00;99.90
19085;DHT22;9675;51.538;6.728;2024-02-23T04:48:59;7.00;99.90
19085;DHT22;9675;51.538;6.728;2024-02-23T04:51:27;7.00;99.90
19085;DHT22;9675;51.538;6.728;2024-02-23T04:53:54;7.00;99.90
19085;DHT22;9675;51.538;6.728;2024-02-23T04:56:22;7.00;99.90
19085;DHT22;9675;51.538;6.728;2024-02-23T04:58:49;7.00;99.90
19085;DHT22;9675;51.538;6.728;2024-02-23T05:01:17;6.90;99.90
19085;DHT22;9675;51.538;6.728;2024-02-23T05:03:45;6.90;99.90
19085;DHT22;9675;51.538;6.728;2024-02-23T05:06:12;6.90;99.90
19085;DHT22;9675;51.538;6.728;2024-02-23T05:08:39;6.90;99.90
19085;DHT22;9675;51.538;6.728;2024-02-23T05:11:06;6.90;99.90
19085;DHT22;9675;51.538;6.728;2024-02-23T05:13:34;6.90;99.90
19085;DHT22;9675;51.538;6.728;2024-02-23T05:16:03;6.90;99.90
19085;DHT22;9675;51.538;6.728;2024-02-23T05:18:30;6.90;99.90
19085;DHT22;9675;51.538;6.728;2024-02-23T05:20:57;6.90;99.90
19085;DHT22;9675;51.538;6.728;2024-02-23T05:23:24;6.90;99.90
19085;DHT22;9675;51.538;6.728;2024-02-23T05:25:52;6.90;99.90
19085;DHT22;9675;51.538;6.728;2024-02-23T05:28:19;6.90;99.90
19085;DHT22;9675;51.538;6.728;2024-02-23T05:30:47;6.90;99.90
19085;DHT22;9675;51.538;6.728;2024-02-23T05:33:14;6.90;99.90
19085;DHT22;9675;51.538;6.728;2024-02-23T05:35:41;6.90;99.90
19085;DHT22;9675;51.538;6.728;2024-02-23T05:38:08;6.90;99.90
19085;DHT22;9675;51.538;6.728;2024-02-23T05:40:35;6.90;99.90
19085;DHT22;9675;51.538;6.728;2024-02-23T05:43:02;6.90;99.90
19085;DHT22;9675;51.538;6.728;2024-02-23T05:45:29;6.80;99.90
19085;DHT22;9675;51.538;6.728;2024-02-23T05:47:58;6.80;99.90
19085;DHT22;9675;51.538;6.728;2024-02-23T05:50:25;6.80;99.90
19085;DHT22;9675;51.538;6.728;2024-02-23T05:52:52;6.80;99.90
19085;DHT22;9675;51.538;6.728;2024-02-23T05:55:19;6.90;99.90
19085;DHT22;9675;51.538;6.728;2024-02-23T05:57:46;6.80;99.90
19085;DHT22;9675;51.538;6.728;2024-02-23T06:00:14;6.80;99.90
19085;DHT22;9675;51.538;6.728;2024-02-23T06:02:44;6.80;99.90
19085;DHT22;9675;51.538;6.728;2024-02-23T06:05:13;6.80;99.90
19085;DHT22;9675;51.538;6.728;2024-02-23T06:07:41;6.80;99.90
19085;DHT22;9675;51.538;6.728;2024-02-23T06:10:08;6.80;99.90
19085;DHT22;9675;51.538;6.728;2024-02-23T06:12:35;6.80;99.90
19085;DHT22;9675;51.538;6.728;2024-02-23T06:15:04;6.80;99.90
19085;DHT22;9675;51.538;6.728;2024-02-23T06:17:32;6.80;99.90
19085;DHT22;9675;51.538;6.728;2024-02-23T06:19:59;6.90;99.90
19085;DHT22;9675;51.538;6.728;2024-02-23T06:22:28;6.90;99.90
19085;DHT22;9675;51.538;6.728;2024-02-23T06:24:55;6.80;99.90
19085;DHT22;9675;51.538;6.728;2024-02-23T06:27:22;6.90;99.90
19085;DHT22;9675;51.538;6.728;2024-02-23T06:29:50;6.90;99.90
19085;DHT22;9675;51.538;6.728;2024-02-23T06:32:17;6.80;99.90
19085;DHT22;9675;51.538;6.728;2024-02-23T06:34:44;6.80;99.90
19085;DHT22;9675;51.538;6.728;2024-02-23T06:37:11;6.80;99.90
19085;DHT22;9675;51.538;6.728;2024-02-23T06:39:40;6.90;99.90
19085;DHT22;9675;51.538;6.728;2024-02-23T06:42:07;6.90;99.90
19085;DHT22;9675;51.538;6.728;2024-02-23T06:44:34;6.90;99.90
19085;DHT22;9675;51.538;6.728;2024-02-23T06:47:01;6.90;99.90
19085;DHT22;9675;51.538;6.728;2024-02-23T06:49:29;6.90;99.90
19085;DHT22;9675;51.538;6.728;2024-02-23T06:51:56;6.90;99.90
19085;DHT22;9675;51.538;6.728;2024-02-23T06:54:23;6.90;99.90
19085;DHT22;9675;51.538;6.728;2024-02-23T06:56:51;6.90;99.90
19085;DHT22;9675;51.538;6.728;2024-02-23T06:59:18;6.90;99.90
19085;DHT22;9675;51.538;6.728;2024-02-23T07:01:49;6.90;99.90
19085;DHT22;9675;51.538;6.728;2024-02-23T07:04:16;6.90;99.90
19085;DHT22;9675;51.538;6.728;2024-02-23T07:06:43;6.90;99.90
19085;DHT22;9675;51.538;6.728;2024-02-23T07:09:10;6.90;99.90
19085;DHT22;9675;51.538;6.728;2024-02-23T07:11:38;6.90;99.90
19085;DHT22;9675;51.538;6.728;2024-02-23T07:14:08;6.90;99.90
19085;DHT22;9675;51.538;6.728;2024-02-23T07:16:37;6.90;99.90
19085;DHT22;9675;51.538;6.728;2024-02-23T07:19:05;6.90;99.90
19085;DHT22;9675;51.538;6.728;2024-02-23T07:21:32;6.90;99.90
19085;DHT22;9675;51.538;6.728;2024-02-23T07:24:00;6.90;99.90
19085;DHT22;9675;51.538;6.728;2024-02-23T07:26:27;6.90;99.90
19085;DHT22;9675;51.538;6.728;2024-02-23T07:28:54;6.90;99.90
19085;DHT22;9675;51.538;6.728;2024-02-23T07:31:23;6.90;99.90
19085;DHT22;9675;51.538;6.728;2024-02-23T07:33:50;6.90;99.90
19085;DHT22;9675;51.538;6.728;2024-02-23T07:36:17;6.90;99.90
19085;DHT22;9675;51.538;6.728;2024-02-23T07:38:45;6.90;99.90
19085;DHT22;9675;51.538;6.728;2024-02-23T07:41:12;6.90;99.90
19085;DHT22;9675;51.538;6.728;2024-02-23T07:43:39;7.00;99.90
19085;DHT22;9675;51.538;6.728;2024-02-23T07:46:07;7.00;99.90
19085;DHT22;9675;51.538;6.728;2024-02-23T07:48:36;7.00;99.90
19085;DHT22;9675;51.538;6.728;2024-02-23T07:51:05;7.00;99.90
19085;DHT22;9675;51.538;6.728;2024-02-23T07:53:32;7.00;99.90
19085;DHT22;9675;51.538;6.728;2024-02-23T07:55:59;7.00;99.90
19085;DHT22;9675;51.538;6.728;2024-02-23T07:58:28;7.00;99.90
19085;DHT22;9675;51.538;6.728;2024-02-23T08:00:55;7.00;99.90
19085;DHT22;9675;51.538;6.728;2024-02-23T08:03:22;7.00;99.90
19085;DHT22;9675;51.538;6.728;2024-02-23T08:05:50;7.00;99.90
19085;DHT22;9675;51.538;6.728;2024-02-23T08:08:17;7.00;99.90
19085;DHT22;9675;51.538;6.728;2024-02-23T08:10:44;7.10;99.90
19085;DHT22;9675;51.538;6.728;2024-02-23T08:13:12;7.10;99.90
19085;DHT22;9675;51.538;6.728;2024-02-23T08:15:38;7.10;99.90
19085;DHT22;9675;51.538;6.728;2024-02-23T08:18:06;7.10;99.90
19085;DHT22;9675;51.538;6.728;2024-02-23T08:20:33;7.20;99.90
19085;DHT22;9675;51.538;6.728;2024-02-23T08:23:01;7.10;99.90
19085;DHT22;9675;51.538;6.728;2024-02-23T08:25:29;7.20;99.90
19085;DHT22;9675;51.538;6.728;2024-02-23T08:27:56;7.20;99.90
19085;DHT22;9675;51.538;6.728;2024-02-23T08:30:24;7.20;99.90
19085;DHT22;9675;51.538;6.728;2024-02-23T08:32:51;7.30;99.90
19085;DHT22;9675;51.538;6.728;2024-02-23T08:35:18;7.30;99.90
19085;DHT22;9675;51.538;6.728;2024-02-23T08:37:45;7.40;99.90
19085;DHT22;9675;51.538;6.728;2024-02-23T08:40:14;7.40;99.90
19085;DHT22;9675;51.538;6.728;2024-02-23T08:42:41;7.40;99.90
19085;DHT22;9675;51.538;6.728;2024-02-23T08:45:09;7.40;99.90
19085;DHT22;9675;51.538;6.728;2024-02-23T08:47:38;7.50;99.90
19085;DHT22;9675;51.538;6.728;2024-02-23T08:50:06;7.50;99.90
19085;DHT22;9675;51.538;6.728;2024-02-23T08:52:33;7.60;99.90
19085;DHT22;9675;51.538;6.728;2024-02-23T08:55:00;7.70;99.90
19085;DHT22;9675;51.538;6.728;2024-02-23T08:57:29;7.70;99.90
19085;DHT22;9675;51.538;6.728;2024-02-23T08:59:56;7.80;99.90
19085;DHT22;9675;51.538;6.728;2024-02-23T09:02:23;7.80;99.90
19085;DHT22;9675;51.538;6.728;2024-02-23T09:04:51;7.90;99.90
19085;DHT22;9675;51.538;6.728;2024-02-23T09:07:18;7.90;99.90
19085;DHT22;9675;51.538;6.728;2024-02-23T09:09:46;7.90;99.90
19085;DHT22;9675;51.538;6.728;2024-02-23T09:12:14;8.00;99.90
19085;DHT22;9675;51.538;6.728;2024-02-23T09:14:43;8.00;99.90
19085;DHT22;9675;51.538;6.728;2024-02-23T09:17:10;8.00;99.90
19085;DHT22;9675;51.538;6.728;2024-02-23T09:19:38;8.10;99.90
19085;DHT22;9675;51.538;6.728;2024-02-23T09:22:05;8.10;99.90
19085;DHT22;9675;51.538;6.728;2024-02-23T09:24:32;8.10;99.90
19085;DHT22;9675;51.538;6.728;2024-02-23T09:27:00;8.20;99.90
19085;DHT22;9675;51.538;6.728;2024-02-23T09:29:27;8.20;99.90
19085;DHT22;9675;51.538;6.728;2024-02-23T09:31:56;8.20;99.90
19085;DHT22;9675;51.538;6.728;2024-02-23T09:34:23;8.30;99.90
19085;DHT22;9675;51.538;6.728;2024-02-23T09:36:50;8.30;99.90
19085;DHT22;9675;51.538;6.728;2024-02-23T09:39:17;8.40;99.90
19085;DHT22;9675;51.538;6.728;2024-02-23T09:41:45;8.40;99.90
19085;DHT22;9675;51.538;6.728;2024-02-23T09:44:18;8.40;99.90
19085;DHT22;9675;51.538;6.728;2024-02-23T09:46:47;8.40;99.90
19085;DHT22;9675;51.538;6.728;2024-02-23T09:49:16;8.40;99.90
19085;DHT22;9675;51.538;6.728;2024-02-23T09:51:43;8.50;99.90
19085;DHT22;9675;51.538;6.728;2024-02-23T09:54:10;8.50;99.90
19085;DHT22;9675;51.538;6.728;2024-02-23T09:56:38;8.60;99.90
19085;DHT22;9675;51.538;6.728;2024-02-23T09:59:06;8.50;99.90
19085;DHT22;9675;51.538;6.728;2024-02-23T10:01:34;8.60;99.90
19085;DHT22;9675;51.538;6.728;2024-02-23T10:04:02;8.60;99.90
19085;DHT22;9675;51.538;6.728;2024-02-23T10:06:33;8.60;99.90
19085;DHT22;9675;51.538;6.728;2024-02-23T10:09:00;8.70;99.90
19085;DHT22;9675;51.538;6.728;2024-02-23T10:11:29;8.60;99.90
19085;DHT22;9675;51.538;6.728;2024-02-23T10:13:56;8.60;99.90
19085;DHT22;9675;51.538;6.728;2024-02-23T10:16:23;8.70;99.90
19085;DHT22;9675;51.538;6.728;2024-02-23T10:18:50;8.70;99.90
19085;DHT22;9675;51.538;6.728;2024-02-23T10:21:18;8.80;99.90
19085;DHT22;9675;51.538;6.728;2024-02-23T10:23:47;8.70;99.90
19085;DHT22;9675;51.538;6.728;2024-02-23T10:26:15;8.70;99.90
19085;DHT22;9675;51.538;6.728;2024-02-23T10:28:45;8.80;99.90
19085;DHT22;9675;51.538;6.728;2024-02-23T10:31:12;8.80;99.90
19085;DHT22;9675;51.538;6.728;2024-02-23T10:33:40;8.70;99.90
19085;DHT22;9675;51.538;6.728;2024-02-23T10:36:10;8.80;99.90
19085;DHT22;9675;51.538;6.728;2024-02-23T10:38:44;8.80;99.90
19085;DHT22;9675;51.538;6.728;2024-02-23T10:41:13;8.90;99.90
19085;DHT22;9675;51.538;6.728;2024-02-23T10:43:44;8.80;99.90
19085;DHT22;9675;51.538;6.728;2024-02-23T10:46:14;8.80;99.90
19085;DHT22;9675;51.538;6.728;2024-02-23T10:48:44;8.80;99.90
19085;DHT22;9675;51.538;6.728;2024-02-23T10:51:13;8.80;99.90
19085;DHT22;9675;51.538;6.728;2024-02-23T10:53:41;8.80;99.90
19085;DHT22;9675;51.538;6.728;2024-02-23T10:56:13;8.80;99.90
19085;DHT22;9675;51.538;6.728;2024-02-23T10:58:40;8.80;99.90
19085;DHT22;9675;51.538;6.728;2024-02-23T11:01:08;8.90;99.90
19085;DHT22;9675;51.538;6.728;2024-02-23T11:03:37;8.90;99.90
19085;DHT22;9675;51.538;6.728;2024-02-23T11:06:08;8.80;99.90
19085;DHT22;9675;51.538;6.728;2024-02-23T11:08:36;8.90;99.90
19085;DHT22;9675;51.538;6.728;2024-02-23T11:11:07;8.80;99.90
19085;DHT22;9675;51.538;6.728;2024-02-23T11:13:37;8.90;99.90
19085;DHT22;9675;51.538;6.728;2024-02-23T11:16:05;8.90;99.90
19085;DHT22;9675;51.538;6.728;2024-02-23T11:18:34;8.90;99.90
19085;DHT22;9675;51.538;6.728;2024-02-23T11:21:03;8.90;99.90
19085;DHT22;9675;51.538;6.728;2024-02-23T11:23:40;8.90;99.90
19085;DHT22;9675;51.538;6.728;2024-02-23T11:26:09;8.90;99.90
19085;DHT22;9675;51.538;6.728;2024-02-23T11:28:47;8.90;99.90
19085;DHT22;9675;51.538;6.728;2024-02-23T11:31:16;8.90;99.90
19085;DHT22;9675;51.538;6.728;2024-02-23T11:33:49;8.90;99.90
19085;DHT22;9675;51.538;6.728;2024-02-23T11:36:23;8.90;99.90
19085;DHT22;9675;51.538;6.728;2024-02-23T11:38:54;8.90;99.90
19085;DHT22;9675;51.538;6.728;2024-02-23T11:41:25;8.90;99.90
19085;DHT22;9675;51.538;6.728;2024-02-23T11:43:55;8.90;99.90
19085;DHT22;9675;51.538;6.728;2024-02-23T11:46:23;9.00;99.90
19085;DHT22;9675;51.538;6.728;2024-02-23T11:48:50;8.90;99.90
19085;DHT22;9675;51.538;6.728;2024-02-23T11:51:20;8.90;99.90
19085;DHT22;9675;51.538;6.728;2024-02-23T11:53:48;8.90;99.90
19085;DHT22;9675;51.538;6.728;2024-02-23T11:56:16;9.00;99.90
19085;DHT22;9675;51.538;6.728;2024-02-23T11:58:44;9.00;99.90
19085;DHT22;9675;51.538;6.728;2024-02-23T12:01:12;8.90;99.90
19085;DHT22;9675;51.538;6.728;2024-02-23T12:03:39;9.00;99.90
19085;DHT22;9675;51.538;6.728;2024-02-23T12:06:07;8.90;99.90
19085;DHT22;9675;51.538;6.728;2024-02-23T12:08:35;9.00;99.90
19085;DHT22;9675;51.538;6.728;2024-02-23T12:11:04;8.90;99.90
19085;DHT22;9675;51.538;6.728;2024-02-23T12:13:37;9.00;99.90
19085;DHT22;9675;51.538;6.728;2024-02-23T12:16:08;9.00;99.90
19085;DHT22;9675;51.538;6.728;2024-02-23T12:18:37;9.00;99.90
19085;DHT22;9675;51.538;6.728;2024-02-23T12:21:06;9.00;99.90
19085;DHT22;9675;51.538;6.728;2024-02-23T12:23:40;9.00;99.90
19085;DHT22;9675;51.538;6.728;2024-02-23T12:26:08;9.00;99.90
19085;DHT22;9675;51.538;6.728;2024-02-23T12:28:39;9.00;99.90
19085;DHT22;9675;51.538;6.728;2024-02-23T12:31:06;9.10;99.90
19085;DHT22;9675;51.538;6.728;2024-02-23T12:33:34;9.10;99.90
19085;DHT22;9675;51.538;6.728;2024-02-23T12:36:05;9.10;99.90
19085;DHT22;9675;51.538;6.728;2024-02-23T12:38:34;9.10;99.90
19085;DHT22;9675;51.538;6.728;2024-02-23T12:41:02;9.10;99.90
19085;DHT22;9675;51.538;6.728;2024-02-23T12:43:30;9.10;99.90
19085;DHT22;9675;51.538;6.728;2024-02-23T12:45:57;9.20;99.90
19085;DHT22;9675;51.538;6.728;2024-02-23T12:48:25;9.20;99.90
19085;DHT22;9675;51.538;6.728;2024-02-23T12:50:54;9.20;99.90
19085;DHT22;9675;51.538;6.728;2024-02-23T12:53:32;9.30;99.90
19085;DHT22;9675;51.538;6.728;2024-02-23T12:56:02;9.20;99.90
19085;DHT22;9675;51.538;6.728;2024-02-23T12:58:29;9.30;99.90
19085;DHT22;9675;51.538;6.728;2024-02-23T13:00:57;9.30;99.90
19085;DHT22;9675;51.538;6.728;2024-02-23T13:03:24;9.30;99.90
19085;DHT22;9675;51.538;6.728;2024-02-23T13:05:54;9.20;99.90
19085;DHT22;9675;51.538;6.728;2024-02-23T13:08:21;9.30;99.90
19085;DHT22;9675;51.538;6.728;2024-02-23T13:10:48;9.30;99.90
19085;DHT22;9675;51.538;6.728;2024-02-23T13:13:16;9.30;99.90
19085;DHT22;9675;51.538;6.728;2024-02-23T13:15:43;9.40;99.90
19085;DHT22;9675;51.538;6.728;2024-02-23T13:18:10;9.40;99.90
19085;DHT22;9675;51.538;6.728;2024-02-23T13:20:38;9.40;99.90
19085;DHT22;9675;51.538;6.728;2024-02-23T13:23:08;9.40;99.90
19085;DHT22;9675;51.538;6.728;2024-02-23T13:25:37;9.50;99.90
19085;DHT22;9675;51.538;6.728;2024-02-23T13:28:05;9.40;99.90
19085;DHT22;9675;51.538;6.728;2024-02-23T13:30:33;9.40;99.90
19085;DHT22;9675;51.538;6.728;2024-02-23T13:33:01;9.40;99.90
19085;DHT22;9675;51.538;6.728;2024-02-23T13:35:29;9.50;99.90
19085;DHT22;9675;51.538;6.728;2024-02-23T13:37:56;9.50;99.90
19085;DHT22;9675;51.538;6.728;2024-02-23T13:40:25;9.50;99.90
19085;DHT22;9675;51.538;6.728;2024-02-23T13:42:52;9.50;99.90
19085;DHT22;9675;51.538;6.728;2024-02-23T13:45:19;9.40;99.90
19085;DHT22;9675;51.538;6.728;2024-02-23T13:47:56;9.40;99.90
19085;DHT22;9675;51.538;6.728;2024-02-23T13:50:24;9.50;99.90
19085;DHT22;9675;51.538;6.728;2024-02-23T13:52:52;9.50;99.90
19085;DHT22;9675;51.538;6.728;2024-02-23T13:55:19;9.50;99.90
19085;DHT22;9675;51.538;6.728;2024-02-23T13:57:48;9.50;99.90
19085;DHT22;9675;51.538;6.728;2024-02-23T14:00:17;9.50;99.90
19085;DHT22;9675;51.538;6.728;2024-02-23T14:02:45;9.50;99.90
19085;DHT22;9675;51.538;6.728;2024-02-23T14:05:13;9.50;99.90
19085;DHT22;9675;51.538;6.728;2024-02-23T14:07:40;9.50;99.90
19085;DHT22;9675;51.538;6.728;2024-02-23T14:10:08;9.50;99.90
19085;DHT22;9675;51.538;6.728;2024-02-23T14:12:35;9.50;99.90
19085;DHT22;9675;51.538;6.728;2024-02-23T14:15:05;9.50;99.90
19085;DHT22;9675;51.538;6.728;2024-02-23T14:17:32;9.50;99.90
19085;DHT22;9675;51.538;6.728;2024-02-23T14:20:00;9.50;99.90
19085;DHT22;9675;51.538;6.728;2024-02-23T14:22:27;9.50;99.90
19085;DHT22;9675;51.538;6.728;2024-02-23T14:24:54;9.60;99.90
19085;DHT22;9675;51.538;6.728;2024-02-23T14:27:22;9.50;99.90
19085;DHT22;9675;51.538;6.728;2024-02-23T14:29:49;9.60;99.90
19085;DHT22;9675;51.538;6.728;2024-02-23T14:32:17;9.60;99.90
19085;DHT22;9675;51.538;6.728;2024-02-23T14:34:44;9.60;99.90
19085;DHT22;9675;51.538;6.728;2024-02-23T14:37:12;9.60;99.90
19085;DHT22;9675;51.538;6.728;2024-02-23T14:39:39;9.60;99.90
19085;DHT22;9675;51.538;6.728;2024-02-23T14:42:06;9.60;99.90
19085;DHT22;9675;51.538;6.728;2024-02-23T14:44:34;9.60;99.90
19085;DHT22;9675;51.538;6.728;2024-02-23T14:47:02;9.60;99.90
19085;DHT22;9675;51.538;6.728;2024-02-23T14:49:32;9.60;99.90
19085;DHT22;9675;51.538;6.728;2024-02-23T14:51:59;9.60;99.90
19085;DHT22;9675;51.538;6.728;2024-02-23T14:54:26;9.60;99.90
19085;DHT22;9675;51.538;6.728;2024-02-23T14:56:55;9.60;99.90
19085;DHT22;9675;51.538;6.728;2024-02-23T14:59:22;9.60;99.90
19085;DHT22;9675;51.538;6.728;2024-02-23T15:01:49;9.60;99.90
19085;DHT22;9675;51.538;6.728;2024-02-23T15:04:16;9.70;99.90
19085;DHT22;9675;51.538;6.728;2024-02-23T15:06:45;9.60;99.90
19085;DHT22;9675;51.538;6.728;2024-02-23T15:09:12;9.70;99.90
19085;DHT22;9675;51.538;6.728;2024-02-23T15:11:40;9.70;99.90
19085;DHT22;9675;51.538;6.728;2024-02-23T15:14:07;9.70;99.90
19085;DHT22;9675;51.538;6.728;2024-02-23T15:16:34;9.70;99.90
19085;DHT22;9675;51.538;6.728;2024-02-23T15:19:02;9.70;99.90
19085;DHT22;9675;51.538;6.728;2024-02-23T15:21:29;9.80;99.90
19085;DHT22;9675;51.538;6.728;2024-02-23T15:23:58;9.80;99.90
19085;DHT22;9675;51.538;6.728;2024-02-23T15:26:25;9.70;99.90
19085;DHT22;9675;51.538;6.728;2024-02-23T15:28:52;9.80;99.90
19085;DHT22;9675;51.538;6.728;2024-02-23T15:31:20;9.70;99.90
19085;DHT22;9675;51.538;6.728;2024-02-23T15:33:47;9.70;99.90
19085;DHT22;9675;51.538;6.728;2024-02-23T15:36:14;9.70;99.90
19085;DHT22;9675;51.538;6.728;2024-02-23T15:38:42;9.70;99.90
19085;DHT22;9675;51.538;6.728;2024-02-23T15:41:11;9.80;99.90
19085;DHT22;9675;51.538;6.728;2024-02-23T15:43:38;9.70;99.90
19085;DHT22;9675;51.538;6.728;2024-02-23T15:46:05;9.70;99.90
19085;DHT22;9675;51.538;6.728;2024-02-23T15:48:31;9.80;99.90
19085;DHT22;9675;51.538;6.728;2024-02-23T15:50:59;9.80;99.90
19085;DHT22;9675;51.538;6.728;2024-02-23T15:53:26;9.80;99.90
19085;DHT22;9675;51.538;6.728;2024-02-23T15:55:53;9.80;99.90
19085;DHT22;9675;51.538;6.728;2024-02-23T15:58:22;9.70;99.90
19085;DHT22;9675;51.538;6.728;2024-02-23T16:00:49;9.80;99.90
19085;DHT22;9675;51.538;6.728;2024-02-23T16:03:16;9.80;99.90
19085;DHT22;9675;51.538;6.728;2024-02-23T16:05:43;9.80;99.90